createdAt,value
2019-03-15T00:01:41.382Z,94238.81
2019-03-15T00:04:11.232Z,94242.58
2019-03-15T00:06:40.752Z,94245.45
2019-03-15T00:09:10.317Z,94235.09
2019-03-15T00:11:44.852Z,94244.09
2019-03-15T00:14:15.619Z,94243.56
2019-03-15T00:16:46.187Z,94246.91
2019-03-15T00:19:15.649Z,94246.81
2019-03-15T00:21:45.234Z,94240.43
2019-03-15T00:24:14.718Z,94249.69
2019-03-15T00:26:44.170Z,94234.66
2019-03-15T00:29:13.722Z,94246.56
2019-03-15T00:31:43.293Z,94252.81
2019-03-15T00:34:12.729Z,94246.98
2019-03-15T00:36:42.383Z,94250.67
2019-03-15T00:39:11.844Z,94252.70
2019-03-15T00:41:41.416Z,94250.42
2019-03-15T00:44:10.848Z,94248.41
2019-03-15T00:46:40.265Z,94242.94
2019-03-15T00:49:09.694Z,94234.98
2019-03-15T00:51:39.270Z,94241.34
2019-03-15T00:54:08.865Z,94233.17
2019-03-15T00:56:38.415Z,94232.44
2019-03-15T00:59:07.929Z,94223.89
2019-03-15T01:01:37.545Z,94224.36
2019-03-15T01:04:09.470Z,94219.16
2019-03-15T01:06:38.143Z,94211.51
2019-03-15T01:09:07.674Z,94220.50
2019-03-15T01:11:37.209Z,94220.11
2019-03-15T01:14:06.653Z,94208.02
2019-03-15T01:16:36.155Z,94219.42
2019-03-15T01:19:05.653Z,94221.75
2019-03-15T01:21:35.610Z,94225.35
2019-03-15T01:24:05.185Z,94214.70
2019-03-15T01:26:35.863Z,94219.36
2019-03-15T01:29:06.552Z,94216.15
2019-03-15T01:31:36.353Z,94214.91
2019-03-15T01:34:05.855Z,94208.67
2019-03-15T01:36:35.377Z,94212.41
2019-03-15T01:39:06.307Z,94212.03
2019-03-15T01:41:37.110Z,94206.36
2019-03-15T01:44:06.676Z,94204.38
2019-03-15T01:46:36.184Z,94197.23
2019-03-15T01:49:05.740Z,94199.60
2019-03-15T01:51:35.166Z,94180.97
2019-03-15T01:54:04.665Z,94192.13
2019-03-15T01:56:34.109Z,94187.08
2019-03-15T01:59:03.608Z,94185.98
2019-03-15T02:01:33.132Z,94188.81
2019-03-15T02:04:02.674Z,94191.41
2019-03-15T02:06:32.209Z,94189.18
2019-03-15T02:09:01.639Z,94192.94
2019-03-15T02:11:31.178Z,94200.77
2019-03-15T02:14:01.694Z,94195.88
2019-03-15T02:16:31.696Z,94198.84
2019-03-15T02:19:01.120Z,94195.36
2019-03-15T02:21:30.639Z,94201.48
2019-03-15T02:24:00.061Z,94205.52
2019-03-15T02:26:29.630Z,94202.19
2019-03-15T02:28:59.128Z,94220.06
2019-03-15T02:31:28.923Z,94216.87
2019-03-15T02:33:59.439Z,94211.88
2019-03-15T02:36:29.656Z,94212.99
2019-03-15T02:38:59.144Z,94212.16
2019-03-15T02:41:28.662Z,94216.86
2019-03-15T02:43:58.191Z,94220.46
2019-03-15T02:46:27.660Z,94216.42
2019-03-15T02:48:57.095Z,94222.41
2019-03-15T02:51:26.618Z,94215.09
2019-03-15T02:53:56.053Z,94219.16
2019-03-15T02:56:25.505Z,94213.19
2019-03-15T02:58:55.028Z,94221.48
2019-03-15T03:01:24.589Z,94218.66
2019-03-15T03:03:55.391Z,94213.63
2019-03-15T03:06:25.035Z,94226.34
2019-03-15T03:08:54.570Z,94227.55
2019-03-15T03:11:24.902Z,94228.50
2019-03-15T03:13:54.431Z,94219.31
2019-03-15T03:16:23.866Z,94231.94
2019-03-15T03:18:53.360Z,94230.98
2019-03-15T03:21:22.819Z,94237.56
2019-03-15T03:23:52.349Z,94235.88
2019-03-15T03:26:21.913Z,94235.87
2019-03-15T03:28:51.339Z,94242.59
2019-03-15T03:31:20.971Z,94240.00
2019-03-15T03:33:50.349Z,94244.20
2019-03-15T03:36:19.788Z,94244.22
2019-03-15T03:38:49.290Z,94249.22
2019-03-15T03:41:19.002Z,94251.51
2019-03-15T03:43:48.481Z,94255.05
2019-03-15T03:46:18.082Z,94253.48
2019-03-15T03:48:47.689Z,94254.43
2019-03-15T03:51:17.451Z,94255.16
2019-03-15T03:53:46.942Z,94259.30
2019-03-15T03:56:17.458Z,94252.87
2019-03-15T03:58:47.036Z,94251.73
2019-03-15T04:01:16.638Z,94250.94
2019-03-15T04:03:47.282Z,94248.20
2019-03-15T04:06:16.774Z,94243.91
2019-03-15T04:08:46.283Z,94244.31
2019-03-15T04:11:15.779Z,94247.49
2019-03-15T04:13:45.378Z,94249.24
2019-03-15T04:16:14.877Z,94244.79
2019-03-15T04:18:45.614Z,94255.64
2019-03-15T04:21:15.134Z,94248.27
2019-03-15T04:23:44.562Z,94251.91
2019-03-15T04:26:13.986Z,94258.63
2019-03-15T04:28:43.560Z,94258.42
2019-03-15T04:31:12.996Z,94274.78
2019-03-15T04:33:42.423Z,94260.76
2019-03-15T04:36:11.927Z,94265.27
2019-03-15T04:38:41.377Z,94265.27
2019-03-15T04:41:10.955Z,94255.37
2019-03-15T04:43:40.382Z,94273.77
2019-03-15T04:46:09.950Z,94272.00
2019-03-15T04:48:39.419Z,94259.77
2019-03-15T04:51:10.357Z,94259.77
2019-03-15T04:53:40.155Z,94273.77
2019-03-15T04:56:09.580Z,94269.19
2019-03-15T04:58:39.015Z,94272.47
2019-03-15T05:01:08.618Z,94276.23
2019-03-15T05:03:38.123Z,94276.23
2019-03-15T05:06:07.652Z,94270.55
2019-03-15T05:08:37.082Z,94276.13
2019-03-15T05:11:06.684Z,94276.35
2019-03-15T05:13:36.408Z,94263.81
2019-03-15T05:16:05.909Z,94277.58
2019-03-15T05:18:35.333Z,94279.36
2019-03-15T05:21:04.870Z,94273.02
2019-03-15T05:23:34.531Z,94285.94
2019-03-15T05:26:04.196Z,94280.64
2019-03-15T05:28:33.733Z,94275.30
2019-03-15T05:31:03.260Z,94280.63
2019-03-15T05:33:32.687Z,94284.39
2019-03-15T05:36:02.226Z,94276.44
2019-03-15T05:38:34.686Z,94290.23
2019-03-15T05:41:02.856Z,94287.53
2019-03-15T05:43:32.322Z,94291.86
2019-03-15T05:46:01.824Z,94275.36
2019-03-15T05:48:31.476Z,94264.48
2019-03-15T05:51:02.867Z,94275.25
2019-03-15T05:53:32.511Z,94282.05
2019-03-15T05:56:01.920Z,94277.41
2019-03-15T05:58:31.453Z,94271.16
2019-03-15T06:01:01.103Z,94271.50
2019-03-15T06:03:30.739Z,94282.14
2019-03-15T06:06:00.428Z,94257.44
2019-03-15T06:08:32.179Z,94256.34
2019-03-15T06:11:01.790Z,94253.94
2019-03-15T06:13:31.227Z,94238.92
2019-03-15T06:16:00.699Z,94244.73
2019-03-15T06:18:30.237Z,94245.52
2019-03-15T06:20:59.754Z,94248.69
2019-03-15T06:23:29.215Z,94234.83
2019-03-15T06:25:58.730Z,94245.95
2019-03-15T06:28:28.379Z,94251.02
2019-03-15T06:30:58.234Z,94246.66
2019-03-15T06:33:28.893Z,94258.16
2019-03-15T06:35:58.990Z,94245.84
2019-03-15T06:38:28.449Z,94240.44
2019-03-15T06:40:58.100Z,94242.72
2019-03-15T06:43:27.802Z,94216.15
2019-03-15T06:45:57.396Z,94236.02
2019-03-15T06:48:26.887Z,94244.83
2019-03-15T06:50:56.430Z,94238.97
2019-03-15T06:53:26.042Z,94252.11
2019-03-15T06:55:55.540Z,94256.10
2019-03-15T06:58:25.037Z,94256.03
2019-03-15T07:00:55.070Z,94260.70
2019-03-15T07:03:24.715Z,94252.73
2019-03-15T07:05:54.761Z,94263.80
2019-03-15T07:08:24.190Z,94258.36
2019-03-15T07:10:53.763Z,94254.05
2019-03-15T07:13:23.535Z,94275.98
2019-03-15T07:15:53.144Z,94266.38
2019-03-15T07:18:22.782Z,94257.67
2019-03-15T07:20:52.457Z,94262.85
2019-03-15T07:23:21.954Z,94272.58
2019-03-15T07:25:51.398Z,94265.45
2019-03-15T07:28:20.831Z,94259.82
2019-03-15T07:30:50.390Z,94256.36
2019-03-15T07:33:19.871Z,94265.29
2019-03-15T07:35:49.483Z,94268.16
2019-03-15T07:38:18.974Z,94263.42
2019-03-15T07:40:48.768Z,94255.30
2019-03-15T07:43:20.015Z,94227.83
2019-03-15T07:45:52.635Z,94252.37
2019-03-15T07:48:26.782Z,94250.72
2019-03-15T07:50:54.907Z,94254.58
2019-03-15T07:53:24.446Z,94253.03
2019-03-15T07:55:54.148Z,94244.97
2019-03-15T07:58:23.829Z,94245.09
2019-03-15T08:00:53.593Z,94251.58
2019-03-15T08:03:23.025Z,94253.64
2019-03-15T08:05:52.560Z,94265.09
2019-03-15T08:08:22.085Z,94265.39
2019-03-15T08:10:54.884Z,94264.61
2019-03-15T08:13:23.100Z,94244.81
2019-03-15T08:15:52.601Z,94253.19
2019-03-15T08:18:22.103Z,94232.95
2019-03-15T08:20:51.600Z,94268.28
2019-03-15T08:23:21.102Z,94280.88
2019-03-15T08:25:50.771Z,94285.47
2019-03-15T08:28:20.265Z,94265.70
2019-03-15T08:30:49.731Z,94262.89
2019-03-15T08:33:19.280Z,94287.52
2019-03-15T08:35:48.848Z,94270.82
2019-03-15T08:38:18.330Z,94283.20
2019-03-15T08:40:47.903Z,94289.99
2019-03-15T08:43:17.345Z,94273.39
2019-03-15T08:45:46.808Z,94268.55
2019-03-15T08:48:16.231Z,94265.86
2019-03-15T08:50:45.732Z,94261.42
2019-03-15T08:53:15.203Z,94266.45
2019-03-15T08:55:44.777Z,94266.56
2019-03-15T08:58:21.375Z,94268.81
2019-03-15T09:00:45.678Z,94272.62
2019-03-15T09:03:27.089Z,94278.03
2019-03-15T09:05:46.463Z,94280.05
2019-03-15T09:08:15.935Z,94276.09
2019-03-15T09:10:45.647Z,94265.48
2019-03-15T09:13:15.214Z,94269.41
2019-03-15T09:15:44.633Z,94262.94
2019-03-15T09:18:14.059Z,94277.14
2019-03-15T09:20:43.845Z,94271.44
2019-03-15T09:23:13.302Z,94256.48
2019-03-15T09:25:42.788Z,94254.38
2019-03-15T09:28:12.352Z,94257.74
2019-03-15T09:30:42.022Z,94255.20
2019-03-15T09:33:11.586Z,94260.30
2019-03-15T09:35:41.080Z,94256.99
2019-03-15T09:38:10.946Z,94250.43
2019-03-15T09:40:40.784Z,94253.36
2019-03-15T09:43:10.375Z,94244.41
2019-03-15T09:45:39.808Z,94229.76
2019-03-15T09:48:09.321Z,94238.11
2019-03-15T09:50:50.537Z,94241.83
2019-03-15T09:53:10.165Z,94256.06
2019-03-15T09:55:39.665Z,94252.98
2019-03-15T09:58:09.193Z,94269.87
2019-03-15T10:00:38.822Z,94262.29
2019-03-15T10:03:21.190Z,94254.91
2019-03-15T10:05:39.530Z,94257.94
2019-03-15T10:08:08.966Z,94233.55
2019-03-15T10:10:38.471Z,94231.30
2019-03-15T10:13:12.130Z,94232.38
2019-03-15T10:15:41.721Z,94221.47
2019-03-15T10:18:11.391Z,94213.00
2019-03-15T10:20:41.130Z,94231.64
2019-03-15T10:23:10.712Z,94222.54
2019-03-15T10:25:46.677Z,94210.70
2019-03-15T10:28:11.548Z,94221.65
2019-03-15T10:30:41.321Z,94244.86
2019-03-15T10:33:10.860Z,94255.88
2019-03-15T10:35:40.393Z,94230.92
2019-03-15T10:38:09.863Z,94220.57
2019-03-15T10:40:39.591Z,94210.98
2019-03-15T10:43:09.008Z,94208.52
2019-03-15T10:45:38.510Z,94221.91
2019-03-15T10:48:08.355Z,94223.16
2019-03-15T10:50:37.984Z,94214.50
2019-03-15T10:53:07.556Z,94194.86
2019-03-15T10:55:37.077Z,94229.94
2019-03-15T10:58:06.619Z,94205.55
2019-03-15T11:00:36.351Z,94202.09
2019-03-15T11:03:05.921Z,94198.66
2019-03-15T11:05:35.481Z,94209.88
2019-03-15T11:08:05.053Z,94201.61
2019-03-15T11:10:34.489Z,94198.70
2019-03-15T11:13:05.279Z,94202.55
2019-03-15T11:15:34.699Z,94176.73
2019-03-15T11:18:04.270Z,94189.88
2019-03-15T11:20:33.728Z,94174.73
2019-03-15T11:23:03.672Z,94167.86
2019-03-15T11:25:34.158Z,94161.83
2019-03-15T11:28:03.659Z,94144.28
2019-03-15T11:30:33.263Z,94164.70
2019-03-15T11:33:02.873Z,94158.27
2019-03-15T11:35:32.433Z,94153.73
2019-03-15T11:38:04.688Z,94157.87
2019-03-15T11:40:34.695Z,94149.24
2019-03-15T11:43:05.446Z,94170.02
2019-03-15T11:45:35.247Z,94173.73
2019-03-15T11:48:05.146Z,94156.59
2019-03-15T11:50:34.739Z,94165.08
2019-03-15T11:53:04.482Z,94156.32
2019-03-15T11:55:34.972Z,94153.63
2019-03-15T11:58:07.062Z,94151.73
2019-03-15T12:00:36.871Z,94162.39
2019-03-15T12:03:06.473Z,94160.50
2019-03-15T12:05:35.978Z,94140.45
2019-03-15T12:08:05.543Z,94136.11
2019-03-15T12:10:35.149Z,94127.89
2019-03-15T12:13:04.774Z,94102.48
2019-03-15T12:15:36.474Z,94128.50
2019-03-15T12:18:08.393Z,94117.79
2019-03-15T12:20:37.750Z,94106.23
2019-03-15T12:23:07.277Z,94105.83
2019-03-15T12:25:36.772Z,94068.73
2019-03-15T12:28:06.314Z,94106.96
2019-03-15T12:30:35.804Z,94121.73
2019-03-15T12:33:05.509Z,94101.30
2019-03-15T12:35:35.076Z,94102.56
2019-03-15T12:38:04.677Z,94092.09
2019-03-15T12:40:34.320Z,94101.83
2019-03-15T12:43:03.899Z,94080.48
2019-03-15T12:45:33.381Z,94060.45
2019-03-15T12:48:03.066Z,94089.17
2019-03-15T12:50:32.564Z,94100.09
2019-03-15T12:53:02.054Z,94100.31
2019-03-15T12:55:31.580Z,94103.56
2019-03-15T12:58:01.004Z,94107.63
2019-03-15T13:00:30.466Z,94107.30
2019-03-15T13:02:59.989Z,94092.04
2019-03-15T13:05:29.464Z,94098.36
2019-03-15T13:07:58.892Z,94086.81
2019-03-15T13:10:28.416Z,94074.38
2019-03-15T13:12:57.852Z,94097.09
2019-03-15T13:15:27.496Z,94105.95
2019-03-15T13:17:57.053Z,94087.77
2019-03-15T13:20:27.683Z,94085.95
2019-03-15T13:22:57.199Z,94105.72
2019-03-15T13:25:26.671Z,94119.66
2019-03-15T13:27:56.165Z,94103.73
2019-03-15T13:30:25.941Z,94102.17
2019-03-15T13:32:55.434Z,94096.03
2019-03-15T13:35:25.014Z,94104.92
2019-03-15T13:37:54.434Z,94106.30
2019-03-15T13:40:23.849Z,94101.58
2019-03-15T13:42:53.414Z,94091.34
2019-03-15T13:45:22.954Z,94110.62
2019-03-15T13:47:52.738Z,94117.27
2019-03-15T13:50:22.469Z,94105.51
2019-03-15T13:52:52.030Z,94119.06
2019-03-15T13:55:21.574Z,94133.86
2019-03-15T13:57:51.319Z,94124.81
2019-03-15T14:00:20.909Z,94151.62
2019-03-15T14:02:50.555Z,94142.84
2019-03-15T14:05:20.072Z,94138.43
2019-03-15T14:07:49.700Z,94157.52
2019-03-15T14:10:19.598Z,94154.48
2019-03-15T14:12:49.141Z,94155.88
2019-03-15T14:15:20.592Z,94162.73
2019-03-15T14:17:55.961Z,94166.61
2019-03-15T14:20:25.696Z,94167.92
2019-03-15T14:22:55.343Z,94164.15
2019-03-15T14:25:27.574Z,94174.66
2019-03-15T14:27:57.214Z,94177.02
2019-03-15T14:30:26.824Z,94182.91
2019-03-15T14:32:56.599Z,94177.25
2019-03-15T14:35:26.087Z,94181.53
2019-03-15T14:37:55.835Z,94182.73
2019-03-15T14:40:25.525Z,94190.80
2019-03-15T14:42:55.312Z,94195.08
2019-03-15T14:45:25.089Z,94195.88
2019-03-15T14:47:54.576Z,94190.22
2019-03-15T14:50:24.319Z,94199.61
2019-03-15T14:52:53.801Z,94197.45
2019-03-15T14:55:23.435Z,94204.76
2019-03-15T14:57:53.615Z,94204.39
2019-03-15T15:00:25.003Z,94209.88
2019-03-15T15:02:54.790Z,94206.56
2019-03-15T15:05:24.360Z,94203.48
2019-03-15T15:07:54.032Z,94208.27
2019-03-15T15:10:23.617Z,94204.02
2019-03-15T15:12:53.183Z,94212.64
2019-03-15T15:15:22.676Z,94218.74
2019-03-15T15:17:52.301Z,94208.47
2019-03-15T15:20:21.876Z,94216.20
2019-03-15T15:22:51.305Z,94218.38
2019-03-15T15:25:20.967Z,94219.57
2019-03-15T15:28:03.805Z,94223.48
2019-03-15T15:30:23.092Z,94222.31
2019-03-15T15:32:52.778Z,94237.20
2019-03-15T15:35:22.267Z,94246.35
2019-03-15T15:37:51.834Z,94237.57
2019-03-15T15:40:21.463Z,94253.22
2019-03-15T15:42:51.129Z,94249.00
2019-03-15T15:45:20.810Z,94265.88
2019-03-15T15:47:50.439Z,94265.01
2019-03-15T15:50:20.002Z,94275.02
2019-03-15T15:52:49.521Z,94264.22
2019-03-15T15:55:18.932Z,94264.66
2019-03-15T15:57:50.217Z,94272.29
2019-03-15T16:00:19.888Z,94278.78
2019-03-15T16:02:49.646Z,94276.27
2019-03-15T16:05:19.284Z,94284.55
2019-03-15T16:07:49.480Z,94282.19
2019-03-15T16:10:19.478Z,94292.77
2019-03-15T16:12:49.168Z,94292.45
2019-03-15T16:15:19.690Z,94300.61
2019-03-15T16:17:49.402Z,94297.72
2019-03-15T16:20:19.251Z,94308.50
2019-03-15T16:22:48.726Z,94318.28
2019-03-15T16:25:18.226Z,94325.03
2019-03-15T16:27:48.069Z,94324.63
2019-03-15T16:30:19.933Z,94330.14
2019-03-15T16:32:49.579Z,94340.37
2019-03-15T16:35:19.146Z,94345.92
2019-03-15T16:37:48.721Z,94351.36
2019-03-15T16:40:18.611Z,94351.36
2019-03-15T16:42:48.212Z,94360.72
2019-03-15T16:45:23.024Z,94375.83
2019-03-15T16:47:52.793Z,94385.52
2019-03-15T16:50:22.668Z,94392.42
2019-03-15T16:52:52.345Z,94386.59
2019-03-15T16:55:22.017Z,94387.70
2019-03-15T16:57:53.305Z,94399.23
2019-03-15T17:00:23.024Z,94411.48
2019-03-15T17:02:52.634Z,94420.63
2019-03-15T17:05:22.287Z,94425.12
2019-03-15T17:07:52.083Z,94434.70
2019-03-15T17:10:21.817Z,94439.55
2019-03-15T17:12:51.662Z,94451.50
2019-03-15T17:15:26.279Z,94451.86
2019-03-15T17:17:57.674Z,94465.75
2019-03-15T17:20:29.174Z,94468.31
2019-03-15T17:22:58.715Z,94470.41
2019-03-15T17:25:28.291Z,94472.58
2019-03-15T17:27:57.936Z,94471.91
2019-03-15T17:30:27.431Z,94479.56
2019-03-15T17:32:56.910Z,94477.67
2019-03-15T17:35:26.461Z,94487.22
2019-03-15T17:37:55.968Z,94483.98
2019-03-15T17:40:25.541Z,94483.57
2019-03-15T17:42:55.095Z,94484.14
2019-03-15T17:45:24.715Z,94479.91
2019-03-15T17:47:54.200Z,94489.09
2019-03-15T17:50:25.202Z,94492.17
2019-03-15T17:52:54.785Z,94501.64
2019-03-15T17:55:24.291Z,94502.16
2019-03-15T17:57:54.925Z,94498.73
2019-03-15T18:00:31.765Z,94499.59
2019-03-15T18:03:01.339Z,94506.70
2019-03-15T18:05:30.963Z,94525.38
2019-03-15T18:08:00.597Z,94520.92
2019-03-15T18:10:32.873Z,94529.01
2019-03-15T18:13:02.774Z,94541.56
2019-03-15T18:15:32.340Z,94543.41
2019-03-15T18:18:01.893Z,94541.28
2019-03-15T18:20:31.682Z,94549.17
2019-03-15T18:23:01.339Z,94558.50
2019-03-15T18:25:31.013Z,94547.36
2019-03-15T18:28:00.773Z,94556.25
2019-03-15T18:30:30.429Z,94561.72
2019-03-15T18:33:03.091Z,94556.19
2019-03-15T18:35:34.250Z,94552.62
2019-03-15T18:38:04.113Z,94565.09
2019-03-15T18:40:33.809Z,94576.86
2019-03-15T18:43:03.475Z,94576.31
2019-03-15T18:45:33.093Z,94577.59
2019-03-15T18:48:04.784Z,94576.70
2019-03-15T18:50:34.758Z,94586.80
2019-03-15T18:53:04.318Z,94584.31
2019-03-15T18:55:35.626Z,94588.01
2019-03-15T18:58:07.101Z,94595.76
2019-03-15T19:00:36.830Z,94587.52
2019-03-15T19:03:06.507Z,94583.20
2019-03-15T19:05:36.158Z,94594.61
2019-03-15T19:08:07.520Z,94592.64
2019-03-15T19:10:38.659Z,94602.47
2019-03-15T19:13:08.531Z,94594.23
2019-03-15T19:15:38.508Z,94597.77
2019-03-15T19:18:08.008Z,94594.41
2019-03-15T19:20:39.617Z,94607.20
2019-03-15T19:23:09.217Z,94611.59
2019-03-15T19:25:38.779Z,94614.64
2019-03-15T19:28:08.548Z,94608.14
2019-03-15T19:30:37.976Z,94608.31
2019-03-15T19:33:07.577Z,94612.56
2019-03-15T19:35:37.094Z,94618.31
2019-03-15T19:38:06.597Z,94615.68
2019-03-15T19:40:36.165Z,94616.92
2019-03-15T19:43:05.821Z,94612.70
2019-03-15T19:45:35.252Z,94610.52
2019-03-15T19:48:04.846Z,94605.02
2019-03-15T19:50:34.414Z,94605.16
2019-03-15T19:53:05.137Z,94613.02
2019-03-15T19:55:34.757Z,94618.80
2019-03-15T19:58:06.597Z,94630.00
2019-03-15T20:00:36.576Z,94637.27
2019-03-15T20:03:06.204Z,94633.05
2019-03-15T20:05:35.631Z,94631.91
2019-03-15T20:08:05.271Z,94641.48
2019-03-15T20:10:35.949Z,94633.84
2019-03-15T20:13:05.599Z,94641.35
2019-03-15T20:15:35.226Z,94644.33
2019-03-15T20:18:06.533Z,94650.30
2019-03-15T20:20:37.479Z,94647.57
2019-03-15T20:23:07.162Z,94642.08
2019-03-15T20:25:36.768Z,94646.61
2019-03-15T20:28:06.354Z,94645.98
2019-03-15T20:30:35.969Z,94641.59
2019-03-15T20:33:05.525Z,94646.58
2019-03-15T20:35:35.141Z,94640.38
2019-03-15T20:38:05.703Z,94641.52
2019-03-15T20:40:36.497Z,94633.25
2019-03-15T20:43:06.129Z,94637.99
2019-03-15T20:45:35.702Z,94624.95
2019-03-15T20:48:05.381Z,94623.80
2019-03-15T20:50:46.178Z,94632.20
2019-03-15T20:53:09.911Z,94633.30
2019-03-15T20:55:37.619Z,94629.64
2019-03-15T20:58:07.424Z,94634.17
2019-03-15T21:00:37.093Z,94643.18
2019-03-15T21:03:06.668Z,94643.04
2019-03-15T21:05:36.263Z,94647.48
2019-03-15T21:08:05.898Z,94637.96
2019-03-15T21:10:35.464Z,94635.77
2019-03-15T21:13:05.071Z,94640.18
2019-03-15T21:15:34.641Z,94629.66
2019-03-15T21:18:05.549Z,94625.83
2019-03-15T21:20:35.403Z,94636.86
2019-03-15T21:23:04.904Z,94641.48
2019-03-15T21:25:34.420Z,94642.59
2019-03-15T21:28:03.918Z,94640.35
2019-03-15T21:30:47.953Z,94641.14
2019-03-15T21:33:07.766Z,94650.75
2019-03-15T21:35:37.326Z,94648.96
2019-03-15T21:38:06.942Z,94650.58
2019-03-15T21:40:36.426Z,94643.53
2019-03-15T21:43:05.960Z,94647.73
2019-03-15T21:45:35.451Z,94637.76
2019-03-15T21:48:05.050Z,94641.42
2019-03-15T21:50:34.777Z,94653.35
2019-03-15T21:53:04.543Z,94650.27
2019-03-15T21:55:34.399Z,94656.77
2019-03-15T21:58:05.237Z,94652.02
2019-03-15T22:00:36.434Z,94662.38
2019-03-15T22:03:05.861Z,94674.24
2019-03-15T22:05:35.474Z,94665.20
2019-03-15T22:08:05.041Z,94668.70
2019-03-15T22:10:34.604Z,94664.97
2019-03-15T22:13:04.265Z,94671.25
2019-03-15T22:15:34.057Z,94663.92
2019-03-15T22:18:04.912Z,94664.66
2019-03-15T22:20:34.389Z,94670.02
2019-03-15T22:23:04.015Z,94675.30
2019-03-15T22:25:33.582Z,94662.36
2019-03-15T22:28:03.115Z,94666.03
2019-03-15T22:30:32.963Z,94661.34
2019-03-15T22:33:02.461Z,94655.95
2019-03-15T22:35:31.993Z,94657.62
2019-03-15T22:38:03.050Z,94655.48
2019-03-15T22:40:33.100Z,94655.28
2019-03-15T22:43:02.565Z,94655.77
2019-03-15T22:45:31.988Z,94656.56
2019-03-15T22:48:01.530Z,94651.08
2019-03-15T22:50:31.285Z,94646.50
2019-03-15T22:53:01.232Z,94650.51
2019-03-15T22:55:31.058Z,94656.61
2019-03-15T22:58:00.767Z,94660.93
2019-03-15T23:00:37.309Z,94653.04
2019-03-15T23:03:08.322Z,94642.33
2019-03-15T23:05:37.880Z,94647.13
2019-03-15T23:08:07.759Z,94636.63
2019-03-15T23:10:47.051Z,94640.73
2019-03-15T23:13:14.581Z,94635.14
2019-03-15T23:15:46.119Z,94644.04
2019-03-15T23:18:16.127Z,94634.07
2019-03-15T23:20:47.422Z,94636.26
2019-03-15T23:23:23.678Z,94635.75
2019-03-15T23:25:49.148Z,94631.83
2019-03-15T23:28:19.789Z,94627.50
2019-03-15T23:30:49.525Z,94631.52
2019-03-15T23:33:19.664Z,94634.13
2019-03-15T23:35:54.217Z,94640.33
2019-03-15T23:38:20.522Z,94630.09
2019-03-15T23:40:50.181Z,94629.36
2019-03-15T23:43:19.618Z,94619.49
2019-03-15T23:45:49.224Z,94619.38
2019-03-15T23:48:20.299Z,94611.51
2019-03-15T23:50:49.873Z,94610.54
2019-03-15T23:53:19.375Z,94603.19
2019-03-15T23:55:48.877Z,94598.55
2019-03-15T23:58:18.329Z,94604.54
